This is the latest recevied weather packets stored in our database for station/object JF7ELG-13. If no packets are shown the sender has not sent any weather packets the latest 10 day(s).
| Time | Temp. | Humidity | Pressure | Rain* | Wind** | Luminosity | Snow |
|---|---|---|---|---|---|---|---|
| 1777735123 | 9.44° C | 80% | 1009.2 hPa | 0 mm | - | - | - |
| 1777734230 | 10° C | 77% | 1009 hPa | 0 mm | - | - | - |
| 1777733328 | 9.44° C | 79% | 1008.9 hPa | 0 mm | - | - | - |
| 1777732420 | 10° C | 78% | 1008.7 hPa | 0 mm | - | - | - |
| 1777731501 | 10.56° C | 75% | 1009.1 hPa | 0 mm | - | - | - |
| 1777730608 | 11.11° C | 73% | 1009.2 hPa | 0 mm | - | - | - |
| 1777729700 | 11.67° C | 73% | 1009.2 hPa | 0 mm | - | - | - |
| 1777728803 | 11.11° C | 74% | 1009.1 hPa | 0 mm | - | - | - |
| 1777727911 | 11.11° C | 75% | 1009 hPa | 0 mm | - | - | - |
| 1777727028 | 11.11° C | 77% | 1009.1 hPa | 0 mm | - | - | - |
| 1777726098 | 11.67° C | 73% | 1008.9 hPa | 0 mm | - | - | - |
| 1777725229 | 12.78° C | 71% | 1008.6 hPa | 0 mm | - | - | - |
| 1777724320 | 13.33° C | 69% | 1008.5 hPa | 0 mm | - | - | - |
| 1777723431 | 14.44° C | 66% | 1008.3 hPa | 0 mm | - | - | - |
| 1777722492 | 15° C | 64% | 1008.2 hPa | 0 mm | - | - | - |
| 1777721592 | 15° C | 64% | 1008.1 hPa | 0 mm | - | - | - |
| 1777720736 | 15.56° C | 59% | 1008.1 hPa | 0 mm | - | - | - |
| 1777719821 | 16.11° C | 57% | 1007.7 hPa | 0 mm | - | - | - |
| 1777718917 | 17.22° C | 52% | 1007.5 hPa | 0 mm | - | - | - |
| 1777718023 | 17.78° C | 48% | 1007.3 hPa | 0 mm | - | - | - |
| 1777717121 | 17.78° C | 46% | 1007 hPa | 0 mm | - | - | - |
| 1777716227 | 17.22° C | 52% | 1006.7 hPa | 0 mm | - | - | - |
| 1777715301 | 17.78° C | 53% | 1006.4 hPa | 0 mm | - | - | - |
| 1777714416 | 18.33° C | 49% | 1005.8 hPa | 0 mm | - | - | - |
| 1777713503 | 18.89° C | 46% | 1005.6 hPa | 0 mm | - | - | - |
* Rain latest hour (hover to see other rain measurements)
** Current wind speed in m/s (hover to see current wind gust speed)